AirNav   Air Wisconsin Up To $57,000 Bonus
 
 1147 users online  

6JY8 Cablevision Bethpage Heliport
Bethpage, New York, USA

GOING TO BETHPAGE?


FAA INFORMATION EFFECTIVE 15 JULY 2021

Location

FAA Identifier: 6JY8
Lat/Long: 40-45-34.8300N 073-29-47.4100W
40-45.580500N 073-29.790167W
40.7596750,-73.4965028
(estimated)
Elevation: 130.1 ft. / 39.7 m (surveyed)
Variation: 13W (2010)
Time zone: UTC -4 (UTC -5 during Standard Time)
Zip code: 11714

Heliport Operations

Heliport use: Private use. Permission required prior to landing
Activation date: 05/2005
Control tower: no
ARTCC: NEW YORK CENTER
FSS: NEW YORK FLIGHT SERVICE STATION
NOTAMs facility: FDC (NOTAM-D service not available)
Attendance: UNATNDD
Wind indicator: lighted
Segmented circle: no
Lights: FOR PERIMETER LGTS, RY H1 & H2, CALL 516-694-3023.

Heliport Communications

WX ASOS at FRG (4 nm SE): PHONE 631-752-8129
WX ASOS at JFK (15 nm SW): 128.725 (718-656-0956)
WX ASOS at LGA (17 nm W): PHONE 718-672-6317
WX ASOS at ISP (18 nm E): 120.725 (631-471-0131)

Nearby radio navigation aids

VOR radial/distance  VOR name  Freq  Var
DPKr270/9.0DEER PARK VOR/DME117.7012W
JFKr071/14.6KENNEDY VOR/DME115.9012W
LGAr107/17.0LA GUARDIA VOR/DME113.1012W
CRIr075/20.1CANARSIE VOR/DME112.3011W
TEBr113/26.2TETERBORO VOR/DME108.4011W
BDRr227/29.4BRIDGEPORT VOR/DME108.8012W
CMKr185/31.5CARMEL VOR/DME116.6012W
CCCr265/33.3CALVERTON VOR/DME117.2013W

 
NDB name  Hdg/Dist  Freq  Var  ID
FRIKK226/1.240714WFR ..-. .-.
BABYLON330/7.327514WBBN -... -... -.
LOKKS292/14.036614WIS .. ...

Heliport Services

Runway Information

Helipad H1

Dimensions: 80 x 80 ft. / 24 x 24 m
Surface: concrete
Runway edge lights: PERI
Latitude: 40-45.580500N
Longitude: 073-29.790167W
Elevation: 130.0 ft.
Traffic pattern: leftleft

Helipad H2

Dimensions: 80 x 80 ft. / 24 x 24 m
Surface: concrete
Runway edge lights: PERI
Traffic pattern: leftleft

Heliport Ownership and Management from official FAA records

Ownership: Privately-owned
Owner: CABLEVISION SYSTEMS CORP.
111 STEWART AVE
BETHPAGE, NY 11714
Phone 516-803-2682
Manager: DANA TRIOLO
1111 STEWART AVE.
BETHPAGE, NY 11714
Phone 516-803-2682
CELL 516-353-9546

Additional Remarks

FOR CD CTC NEW YORK APCH AT 516-683-2962.

Instrument Procedures

There are no published instrument procedures at 6JY8.

Some nearby airports with instrument procedures:

KFRG - Republic Airport (4 nm SE)
KJFK - John F Kennedy International Airport (15 nm SW)
KLGA - LaGuardia Airport (17 nm W)
KISP - Long Island Mac Arthur Airport (18 nm E)
KHPN - Westchester County Airport (21 nm NW)
 
Loc | Ops | Rwys | IFR | FBO | Links
Com | Nav | Svcs | Stats | Notes
Area around 6JY8 (Cablevision Bethpage Heliport)
 
Road maps at: MapQuest Bing Google
 
Aerial photo
No photo
 
Sectional chart

 
Airport distance calculator
Flying to Cablevision Bethpage Heliport? Find the distance to fly.

From to 6JY8

Sunrise and sunset
Times for 01-Aug-2021
 Local
(UTC-4)
 Zulu
(UTC)
Morning civil twilight05:2109:21
Sunrise05:5109:51
Sunset20:0900:09
Evening civil twilight20:4000:40

Current date and time
Zulu (UTC)  02-Aug-2021 01:08:52
Local (UTC-4)  01-Aug-2021 21:08:52
 
METAR
KFRG 
4nm SE 
020053Z 17010KT 10SM OVC049 22/16 A2986 RMK AO2 SLP111 T02170161
KJFK 
14nm SW 
020051Z 15009KT 10SM -RA OVC039 22/17 A2986 RMK AO2 RAB51 SLP111 P0000 T02220167
KLGA 
18nm W 
020051Z 16008KT 10SM -RA BKN037 BKN055 OVC100 22/16 A2985 RMK AO2 RAB31 SLP108 P0001 T02170156
KISP 
18nm E 
020056Z 14007KT 10SM FEW030 BKN060 BKN250 22/17 A2985 RMK AO2 SLP109 T02170167 $
TAF
KJFK 
14nm SW 
012209Z 0122/0224 15010KT P6SM VCSH SCT015 BKN050 TEMPO 0200/0203 3SM -SHRA BR BKN015 FM020300 32004KT P6SM VCSH SCT015 BKN040 FM020600 31008KT P6SM FEW015 SCT035 FM021500 31007G15KT P6SM FEW200 FM022100 27009KT P6SM SCT250
KLGA 
18nm W 
012210Z 0122/0224 15008KT P6SM VCSH SCT015 BKN050 TEMPO 0200/0203 3SM -SHRA BR BKN015 BKN025 FM020300 32004KT P6SM VCSH SCT015 BKN040 FM020600 32007KT P6SM FEW015 SCT035 FM021500 31007G15KT P6SM FEW200 FM022100 28008KT P6SM SCT250
KISP 
18nm E 
012220Z 0122/0218 15010KT P6SM FEW030 BKN100 FM020000 15008KT P6SM VCSH SCT015 BKN070 TEMPO 0203/0205 3SM -SHRA BR BKN015 BKN040 FM020700 31006KT P6SM BKN040 FM021500 32008G15KT P6SM SCT040
NOTAMs
Click for the latest NOTAMs
NOTAMs are issued by the DoD/FAA and will open in a separate window not controlled by AirNav.

 

 
 

Would you like to see your business listed on this page?

 If your business provides an interesting product or service to pilots, flight crews, aircraft, or users of the Cablevision Bethpage Heliport, you should consider listing it here.  To start the listing process, click on the button below
 
Add a business
 

Other Pages about Cablevision Bethpage Heliport

Update a link
 
Copyright © AirNav, LLC. All rights reserved. Privacy Policy  Contact